Time;durP1;ratioP1;P1;durP2;ratioP2;P2;SDS_P1;SDS_P2;PMS_P1;PMS_P2;Temp;Humidity;BMP_temperature;BMP_pressure;BME280_temperature;BME280_humidity;BME280_pressure;Samples;Min_cycle;Max_cycle;Signal;HPM_P1;HPM_P2
2022/04/16 00:01:49;;;;;;;18.30;9.52;;;;;;;15.71;69.29;102448.00;7384650;19;20485;-65
2022/04/16 00:04:16;;;;;;;20.20;9.15;;;;;;;15.68;70.01;102447.47;7387916;19;20018;-65
2022/04/16 00:06:45;;;;;;;21.08;8.50;;;;;;;15.66;69.80;102446.78;7385711;19;20042;-64
2022/04/16 00:09:19;;;;;;;17.00;8.80;;;;;;;15.62;69.57;102435.63;7387738;19;20055;-65
2022/04/16 00:11:49;;;;;;;20.65;9.07;;;;;;;15.60;69.43;102450.00;7386794;19;20006;-64
2022/04/16 00:14:17;;;;;;;14.25;7.82;;;;;;;15.57;69.77;102443.19;7385869;19;20019;-66
2022/04/16 00:16:47;;;;;;;20.25;9.38;;;;;;;15.55;69.64;102452.25;7385649;19;20017;-66
2022/04/16 00:19:20;;;;;;;19.00;8.65;;;;;;;15.55;70.52;102446.94;7383045;19;20014;-64
2022/04/16 00:21:47;;;;;;;18.48;8.82;;;;;;;15.53;69.60;102456.88;7388590;19;20006;-67
2022/04/16 00:24:14;;;;;;;16.75;8.07;;;;;;;15.54;69.16;102451.44;7385554;19;20069;-66
2022/04/16 00:26:41;;;;;;;19.25;8.30;;;;;;;15.53;69.04;102456.88;7387231;19;20078;-66
2022/04/16 00:29:12;;;;;;;17.55;8.57;;;;;;;15.51;69.57;102464.97;7385336;19;20023;-64
2022/04/16 00:31:39;;;;;;;20.67;9.02;;;;;;;15.51;70.63;102458.81;7384671;19;20007;-65
2022/04/16 00:34:06;;;;;;;18.92;8.52;;;;;;;15.45;70.91;102457.56;7385254;19;20097;-67
2022/04/16 00:36:33;;;;;;;19.30;9.60;;;;;;;15.40;71.36;102455.34;7385366;19;20006;-65
2022/04/16 00:39:00;;;;;;;19.60;9.48;;;;;;;15.40;70.76;102458.00;7388494;19;20457;-66
2022/04/16 00:41:27;;;;;;;17.55;8.77;;;;;;;15.37;71.19;102462.75;7383018;19;20014;-65
2022/04/16 00:43:54;;;;;;;21.38;9.63;;;;;;;15.30;71.14;102459.84;7382149;19;20021;-64
2022/04/16 00:46:21;;;;;;;19.75;8.45;;;;;;;15.26;71.64;102463.75;7384821;19;20002;-66
2022/04/16 00:48:49;;;;;;;23.90;9.15;;;;;;;15.19;71.97;102460.00;7387647;19;20006;-63
2022/04/16 00:51:16;;;;;;;19.00;8.32;;;;;;;15.17;71.72;102461.97;7385866;19;20011;-67
2022/04/16 00:53:49;;;;;;;20.45;8.68;;;;;;;15.15;71.76;102457.78;7386015;19;20018;-64
2022/04/16 00:56:16;;;;;;;19.85;8.15;;;;;;;15.14;71.52;102461.41;7384342;19;20094;-66
2022/04/16 00:58:43;;;;;;;20.95;9.00;;;;;;;15.10;71.91;102458.19;7384907;19;20014;-63
2022/04/16 01:01:10;;;;;;;21.00;9.93;;;;;;;15.09;72.30;102464.47;7385462;19;20094;-66
2022/04/16 01:03:39;;;;;;;20.08;8.50;;;;;;;15.07;72.65;102463.78;7382447;19;20440;-66
2022/04/16 01:06:06;;;;;;;22.23;8.45;;;;;;;15.07;71.85;102468.25;7386734;19;20078;-64
2022/04/16 01:08:33;;;;;;;17.52;8.70;;;;;;;15.04;72.19;102458.75;7383760;19;20017;-66
2022/04/16 01:11:00;;;;;;;16.63;7.82;;;;;;;15.04;71.99;102461.41;7384865;19;20018;-65
2022/04/16 01:13:26;;;;;;;21.77;8.73;;;;;;;15.00;72.12;102460.03;7383427;19;20086;-63
2022/04/16 01:15:53;;;;;;;16.02;9.15;;;;;;;15.01;72.13;102459.06;7386814;19;20149;-67
2022/04/16 01:18:20;;;;;;;20.73;8.85;;;;;;;15.03;72.09;102457.13;7382116;19;20114;-66
2022/04/16 01:20:47;;;;;;;20.40;9.27;;;;;;;15.04;72.02;102456.09;7383395;19;20033;-65
2022/04/16 01:23:15;;;;;;;17.17;8.13;;;;;;;15.05;71.94;102456.94;7381791;19;20208;-66
2022/04/16 01:25:44;;;;;;;18.23;8.52;;;;;;;15.07;72.38;102455.00;7385619;19;20013;-65
2022/04/16 01:28:12;;;;;;;20.33;9.52;;;;;;;15.10;72.68;102455.56;7385738;19;20022;-66
2022/04/16 01:30:39;;;;;;;21.77;8.98;;;;;;;15.11;72.09;102462.53;7381714;19;20074;-63
2022/04/16 01:33:06;;;;;;;21.65;9.45;;;;;;;15.04;72.12;102457.91;7387835;19;20370;-68
2022/04/16 01:35:32;;;;;;;22.98;10.25;;;;;;;15.05;72.33;102460.44;7382969;19;20006;-64
2022/04/16 01:37:59;;;;;;;27.40;10.23;;;;;;;15.05;72.46;102462.25;7387378;19;20483;-64
2022/04/16 01:40:26;;;;;;;27.95;9.90;;;;;;;15.05;72.06;102463.09;7383330;19;20018;-66
2022/04/16 01:42:57;;;;;;;27.38;10.50;;;;;;;15.04;72.92;102461.41;7385659;19;20389;-66
2022/04/16 01:45:24;;;;;;;24.02;10.00;;;;;;;15.05;72.06;102459.59;7383130;19;20456;-65
2022/04/16 01:47:51;;;;;;;23.05;8.52;;;;;;;15.05;71.78;102457.78;7380716;19;20314;-65
2022/04/16 01:50:19;;;;;;;20.77;8.82;;;;;;;15.05;72.62;102459.59;7386168;19;20074;-68
2022/04/16 01:52:47;;;;;;;25.52;10.38;;;;;;;14.99;72.32;102453.03;7383735;19;20025;-64
2022/04/16 01:55:14;;;;;;;30.95;11.23;;;;;;;14.92;72.43;102473.16;7393802;19;20014;-67
2022/04/16 01:57:42;;;;;;;30.77;12.20;;;;;;;14.92;72.66;102465.22;7391340;19;20074;-65
2022/04/16 02:00:11;;;;;;;29.70;11.40;;;;;;;14.87;72.67;102465.63;7390131;19;20029;-68
2022/04/16 02:02:38;;;;;;;28.50;11.23;;;;;;;14.86;72.54;102466.59;7388434;19;20332;-66
2022/04/16 02:05:06;;;;;;;33.33;11.82;;;;;;;14.85;72.92;102469.38;7389903;19;20007;-67
2022/04/16 02:07:33;;;;;;;31.60;11.52;;;;;;;14.78;73.17;102471.75;7390952;19;20078;-67
2022/04/16 02:10:00;;;;;;;35.63;13.05;;;;;;;14.77;72.91;102469.25;7389811;19;20014;-66
2022/04/16 02:12:28;;;;;;;32.65;12.18;;;;;;;14.74;73.06;102469.53;7392227;19;20014;-67
2022/04/16 02:14:54;;;;;;;38.92;13.05;;;;;;;14.68;73.40;102465.59;7391784;19;20019;-65
2022/04/16 02:17:23;;;;;;;38.55;13.20;;;;;;;14.66;73.57;102467.59;7387061;19;20010;-67
2022/04/16 02:19:49;;;;;;;36.40;12.75;;;;;;;14.61;73.58;102468.97;7394037;19;20046;-67
2022/04/16 02:22:16;;;;;;;35.42;12.98;;;;;;;14.57;73.74;102476.38;7388495;19;20014;-67
2022/04/16 02:24:46;;;;;;;38.10;14.10;;;;;;;14.52;74.55;102482.06;7391623;19;20015;-64
2022/04/16 02:27:14;;;;;;;39.38;14.35;;;;;;;14.49;74.56;102484.97;7389636;19;20337;-66
2022/04/16 02:29:43;;;;;;;37.83;14.02;;;;;;;14.49;74.41;102479.69;7392130;19;20014;-68
2022/04/16 02:32:11;;;;;;;42.75;14.90;;;;;;;14.43;74.71;102477.56;7392658;19;20093;-66
2022/04/16 02:34:38;;;;;;;39.58;14.48;;;;;;;14.39;75.63;102481.47;7388505;19;20022;-67
2022/04/16 02:37:05;;;;;;;47.33;16.05;;;;;;;14.41;75.35;102484.84;7389770;19;20010;-65
2022/04/16 02:39:32;;;;;;;44.03;15.85;;;;;;;14.40;75.41;102484.97;7386996;19;20011;-68
2022/04/16 02:41:59;;;;;;;41.95;15.13;;;;;;;14.32;75.41;102480.34;7390137;19;20504;-67
2022/04/16 02:47:13;;;;;;;43.53;16.30;;;;;;;14.28;75.92;102475.41;7390937;19;20086;-65
2022/04/16 02:49:40;;;;;;;44.78;16.85;;;;;;;14.26;75.85;102475.59;7386830;19;20014;-63
2022/04/16 02:52:08;;;;;;;43.15;17.27;;;;;;;14.24;76.08;102479.31;7388014;19;20007;-64
2022/04/16 02:54:36;;;;;;;45.78;16.73;;;;;;;14.23;76.55;102480.28;7390700;19;20327;-65
2022/04/16 02:57:03;;;;;;;51.08;18.55;;;;;;;14.19;76.72;102479.72;7394046;19;20022;-63
2022/04/16 02:59:35;;;;;;;52.17;18.80;;;;;;;14.17;76.45;102471.06;7391429;19;20031;-65
2022/04/16 03:02:05;;;;;;;51.97;18.13;;;;;;;14.13;76.41;102475.81;7385459;19;20107;-66
2022/04/16 03:04:32;;;;;;;56.42;18.88;;;;;;;14.09;76.56;102465.63;7388102;19;20053;-65
2022/04/16 03:06:59;;;;;;;41.47;17.92;;;;;;;14.08;77.14;102477.19;7387772;19;20721;-66
2022/04/16 03:09:26;;;;;;;50.83;17.85;;;;;;;14.07;77.21;102473.69;7387893;19;20014;-66
2022/04/16 03:11:53;;;;;;;46.05;16.90;;;;;;;14.07;77.04;102471.06;7389526;19;20010;-65
2022/04/16 03:19:51;;;;;;;49.17;18.73;;;;;;;13.99;77.75;102470.06;7388290;19;20021;-66
2022/04/16 03:22:18;;;;;;;45.58;18.45;;;;;;;13.99;77.42;102475.34;7391249;19;20018;-65
2022/04/16 03:24:45;;;;;;;52.90;19.77;;;;;;;13.97;77.27;102469.34;7388164;19;20425;-64
2022/04/16 03:27:12;;;;;;;53.95;19.08;;;;;;;13.94;77.28;102470.47;7389333;19;20025;-66
2022/04/16 03:29:39;;;;;;;50.95;18.30;;;;;;;13.94;77.18;102477.56;7386006;19;20010;-65
2022/04/16 03:32:06;;;;;;;49.65;18.77;;;;;;;13.91;78.39;102469.91;7390043;19;20025;-66
2022/04/16 03:34:33;;;;;;;49.65;18.23;;;;;;;13.91;77.35;102478.69;7386254;19;20316;-63
2022/04/16 03:37:00;;;;;;;48.47;20.35;;;;;;;13.86;78.11;102480.88;7388497;19;20021;-67
2022/04/16 03:39:26;;;;;;;45.35;18.88;;;;;;;13.80;77.92;102468.19;7388413;19;20083;-64
2022/04/16 03:41:54;;;;;;;48.22;19.23;;;;;;;13.78;78.09;102472.75;7387520;19;20031;-64
2022/04/16 03:44:21;;;;;;;52.00;19.80;;;;;;;13.73;78.05;102474.97;7382548;19;20018;-63
2022/04/16 03:46:48;;;;;;;48.97;19.48;;;;;;;13.74;78.39;102476.66;7383940;19;20102;-67
2022/04/16 03:49:15;;;;;;;51.47;19.48;;;;;;;13.75;77.99;102485.44;7390685;19;20010;-67
2022/04/16 03:51:43;;;;;;;48.70;18.88;;;;;;;13.72;78.10;102491.81;7385819;19;20474;-66
2022/04/16 04:00:00;;;;;;;56.70;21.30;;;;;;;13.63;78.98;102500.53;7388061;19;20023;-66
2022/04/16 04:02:33;;;;;;;55.03;20.42;;;;;;;13.60;78.85;102503.47;7386007;19;20017;-65
2022/04/16 04:05:06;;;;;;;58.45;21.50;;;;;;;13.60;78.67;102498.16;7388827;19;20019;-65
2022/04/16 04:07:33;;;;;;;51.65;20.20;;;;;;;13.57;78.73;102506.34;7387258;19;20391;-65
2022/04/16 04:10:00;;;;;;;51.90;20.05;;;;;;;13.55;78.82;102501.22;7387700;19;20355;-66
2022/04/16 04:12:32;;;;;;;55.70;21.50;;;;;;;13.51;79.45;102502.41;7387263;19;20337;-67
2022/04/16 04:15:03;;;;;;;53.75;21.55;;;;;;;13.49;79.21;102507.00;7385581;19;20015;-63
2022/04/16 04:17:30;;;;;;;54.10;21.65;;;;;;;13.43;79.20;102509.31;7385492;19;20022;-64
2022/04/16 04:19:57;;;;;;;48.08;20.85;;;;;;;13.37;79.66;102502.75;7382843;19;20029;-67
2022/04/16 04:22:24;;;;;;;55.58;22.33;;;;;;;13.28;80.16;102512.31;7383221;19;20221;-66
2022/04/16 04:24:52;;;;;;;58.05;22.13;;;;;;;13.24;80.58;102502.13;7387080;19;20532;-68
2022/04/16 04:27:19;;;;;;;56.67;22.48;;;;;;;13.18;80.73;102510.56;7387479;19;20024;-65
2022/04/16 04:29:46;;;;;;;58.60;23.10;;;;;;;13.20;80.48;102506.84;7386528;19;20003;-65
2022/04/16 04:32:12;;;;;;;55.47;22.30;;;;;;;13.20;80.63;102509.47;7387059;19;20452;-67
2022/04/16 04:34:39;;;;;;;59.42;22.67;;;;;;;13.20;80.40;102527.97;7384660;19;20007;-65
2022/04/16 04:37:06;;;;;;;59.22;23.00;;;;;;;13.24;81.41;102510.03;7385305;19;20007;-64
2022/04/16 04:39:33;;;;;;;53.97;22.10;;;;;;;13.26;80.97;102516.88;7384070;19;20086;-67
2022/04/16 04:42:00;;;;;;;56.90;23.83;;;;;;;13.28;80.61;102525.53;7385174;19;20182;-66
2022/04/16 04:44:27;;;;;;;55.85;22.38;;;;;;;13.26;80.31;102522.16;7382426;19;20349;-68
2022/04/16 04:46:54;;;;;;;58.67;23.48;;;;;;;13.27;80.73;102525.63;7385204;19;20014;-63
2022/04/16 04:49:21;;;;;;;54.40;22.52;;;;;;;13.24;80.66;102526.75;7383731;19;20046;-63
2022/04/16 04:51:48;;;;;;;53.92;22.52;;;;;;;13.21;81.16;102534.06;7383131;19;20135;-63
2022/04/16 04:54:15;;;;;;;55.45;23.52;;;;;;;13.19;80.88;102536.88;7381843;19;20108;-64
2022/04/16 04:56:42;;;;;;;58.88;24.45;;;;;;;13.17;80.97;102530.84;7384433;19;20050;-65
2022/04/16 04:59:09;;;;;;;60.90;23.42;;;;;;;13.17;80.92;102528.22;7386224;19;20345;-67
2022/04/16 05:01:36;;;;;;;61.00;24.38;;;;;;;13.16;81.12;102530.97;7387720;19;20097;-64
2022/04/16 05:04:03;;;;;;;58.75;23.55;;;;;;;13.16;81.23;102533.63;7386976;19;20407;-64
2022/04/16 05:06:30;;;;;;;53.50;22.90;;;;;;;13.19;81.06;102536.88;7387699;19;20101;-64
2022/04/16 05:08:57;;;;;;;56.70;22.88;;;;;;;13.19;80.93;102542.16;7384939;19;20405;-64
2022/04/16 05:11:24;;;;;;;54.10;22.80;;;;;;;13.20;80.71;102541.19;7386281;19;20028;-66
2022/04/16 05:13:51;;;;;;;61.03;22.88;;;;;;;13.22;80.49;102541.88;7386648;19;20021;-65
2022/04/16 05:16:17;;;;;;;56.58;23.50;;;;;;;13.24;80.40;102539.13;7387243;19;20011;-65
2022/04/16 05:18:44;;;;;;;58.65;24.35;;;;;;;13.24;80.10;102552.34;7384221;19;20018;-66
2022/04/16 05:21:11;;;;;;;54.13;23.08;;;;;;;13.25;80.29;102556.66;7384410;19;20090;-64
2022/04/16 05:23:41;;;;;;;56.97;23.77;;;;;;;13.27;80.05;102562.66;7382934;19;20497;-63
2022/04/16 05:26:09;;;;;;;56.30;23.15;;;;;;;13.27;79.57;102557.34;7384112;19;20017;-66
2022/04/16 05:28:36;;;;;;;49.88;22.38;;;;;;;13.27;79.96;102566.13;7386348;19;20027;-64
2022/04/16 05:31:04;;;;;;;49.47;21.95;;;;;;;13.27;79.90;102567.94;7393090;19;20444;-64
2022/04/16 05:36:17;;;;;;;58.03;24.92;;;;;;;13.32;80.18;102565.75;7390706;19;20015;-66
2022/04/16 05:38:45;;;;;;;56.15;23.38;;;;;;;13.32;79.59;102572.84;7390784;19;20475;-62
2022/04/16 05:41:12;;;;;;;53.25;22.92;;;;;;;13.33;79.84;102570.06;7389465;19;20010;-66
2022/04/16 05:43:39;;;;;;;56.28;24.75;;;;;;;13.33;79.54;102571.88;7390588;19;20020;-65
2022/04/16 05:46:06;;;;;;;56.28;24.42;;;;;;;13.36;80.22;102587.50;7390348;19;20007;-67
2022/04/16 05:48:33;;;;;;;59.20;24.85;;;;;;;13.35;80.66;102583.19;7391712;19;20021;-66
2022/04/16 05:51:01;;;;;;;52.67;24.77;;;;;;;13.32;80.33;102583.41;7390277;19;20538;-66
2022/04/16 05:53:29;;;;;;;53.75;24.83;;;;;;;13.32;79.87;102591.34;7391882;19;20011;-65
2022/04/16 05:55:57;;;;;;;55.03;24.20;;;;;;;13.30;79.83;102588.84;7392885;19;20011;-67
2022/04/16 05:58:27;;;;;;;53.50;24.42;;;;;;;13.29;79.96;102584.53;7389628;19;20154;-66
2022/04/16 06:00:58;;;;;;;56.90;26.48;;;;;;;13.26;80.50;102588.25;7388326;19;20011;-66
2022/04/16 06:03:25;;;;;;;56.38;25.27;;;;;;;13.29;80.09;102589.81;7387823;19;20019;-65
2022/04/16 06:05:52;;;;;;;58.60;24.42;;;;;;;13.35;79.49;102593.75;7388948;19;20007;-65
2022/04/16 06:08:19;;;;;;;57.08;25.95;;;;;;;13.31;79.74;102602.91;7387405;19;20429;-67
2022/04/16 06:10:47;;;;;;;52.88;24.60;;;;;;;13.30;80.17;102611.81;7389551;19;20066;-67
2022/04/16 06:13:14;;;;;;;54.78;24.75;;;;;;;13.30;79.76;102610.00;7389465;19;20030;-65
2022/04/16 06:15:42;;;;;;;63.55;26.35;;;;;;;13.32;80.01;102613.34;7392815;19;20097;-65
2022/04/16 06:18:12;;;;;;;56.25;25.02;;;;;;;13.32;80.00;102613.34;7388097;19;20015;-64
2022/04/16 06:20:39;;;;;;;52.40;24.27;;;;;;;13.39;79.62;102618.97;7391189;19;20010;-64
2022/04/16 06:23:07;;;;;;;56.83;25.75;;;;;;;13.37;79.60;102621.72;7388491;19;20043;-63
2022/04/16 06:25:34;;;;;;;57.30;25.83;;;;;;;13.41;79.63;102609.13;7390011;19;20086;-65
2022/04/16 06:28:02;;;;;;;55.35;25.63;;;;;;;13.39;80.35;102611.88;7393995;19;20030;-65
2022/04/16 06:30:29;;;;;;;59.67;25.95;;;;;;;13.40;79.47;102612.72;7387504;19;20333;-66
2022/04/16 06:32:56;;;;;;;51.50;25.38;;;;;;;13.40;79.15;102612.72;7392317;19;20031;-64
2022/04/16 06:35:24;;;;;;;57.10;25.13;;;;;;;13.40;79.51;102610.06;7389409;19;20011;-63
2022/04/16 06:37:51;;;;;;;55.45;25.80;;;;;;;13.39;79.29;102609.22;7390420;19;20122;-66
2022/04/16 06:40:18;;;;;;;59.00;25.92;;;;;;;13.35;79.71;102614.91;7386189;19;20007;-65
2022/04/16 06:42:45;;;;;;;58.67;26.30;;;;;;;13.36;79.85;102613.94;7392291;19;20031;-65
2022/04/16 06:45:12;;;;;;;60.28;25.60;;;;;;;13.37;80.00;102619.09;7387474;19;20030;-65
2022/04/16 06:47:39;;;;;;;59.15;24.98;;;;;;;13.47;79.65;102611.22;7390735;19;20015;-64
2022/04/16 06:50:08;;;;;;;57.55;26.33;;;;;;;13.70;78.50;102618.09;7386838;19;20011;-64
2022/04/16 06:52:37;;;;;;;63.53;26.95;;;;;;;13.95;77.82;102611.56;7389650;19;20018;-65
2022/04/16 06:55:05;;;;;;;64.22;27.90;;;;;;;14.16;77.13;102608.91;7387882;19;20021;-65
2022/04/16 06:57:32;;;;;;;58.80;25.95;;;;;;;14.25;76.75;102608.09;7388442;19;20380;-63
2022/04/16 07:00:04;;;;;;;64.07;27.35;;;;;;;14.28;76.15;102605.19;7387420;19;20006;-65
2022/04/16 07:02:37;;;;;;;62.90;26.50;;;;;;;14.47;75.78;102605.31;7386102;19;20021;-64
2022/04/16 07:05:06;;;;;;;58.67;24.85;;;;;;;14.72;74.49;102599.53;7389204;19;20011;-65
2022/04/16 07:07:33;;;;;;;61.22;26.75;;;;;;;14.94;73.48;102601.91;7387509;19;20018;-65
2022/04/16 07:10:00;;;;;;;66.50;27.27;;;;;;;14.90;73.74;102608.47;7391139;19;20017;-65
2022/04/16 07:12:31;;;;;;;57.95;26.25;;;;;;;14.96;73.84;102605.28;7390356;19;20332;-65
2022/04/16 07:15:02;;;;;;;55.90;25.42;;;;;;;15.05;72.86;102605.41;7387104;19;20393;-66
2022/04/16 07:17:29;;;;;;;59.10;25.80;;;;;;;15.04;72.96;102609.88;7387914;19;20634;-67
2022/04/16 07:19:56;;;;;;;62.97;25.73;;;;;;;15.10;72.84;102609.34;7387212;19;20147;-65
2022/04/16 07:22:23;;;;;;;62.28;26.75;;;;;;;15.26;71.72;102611.44;7385841;19;20484;-65
2022/04/16 07:24:51;;;;;;;60.00;26.60;;;;;;;15.23;72.14;102607.28;7383615;19;20026;-64
2022/04/16 07:27:18;;;;;;;56.58;25.58;;;;;;;15.20;72.58;102617.28;7387351;19;20114;-65
2022/04/16 07:29:46;;;;;;;56.95;25.55;;;;;;;15.20;72.10;102614.66;7385045;19;20014;-67
2022/04/16 07:32:13;;;;;;;53.22;25.35;;;;;;;15.33;72.20;102617.88;7389311;19;20025;-66
2022/04/16 07:34:40;;;;;;;57.70;26.30;;;;;;;15.53;71.39;102616.09;7387839;19;20019;-64
2022/04/16 07:37:07;;;;;;;57.22;26.58;;;;;;;15.59;70.72;102624.34;7388287;19;20074;-66
2022/04/16 07:39:33;;;;;;;59.97;26.40;;;;;;;15.73;71.21;102620.41;7387151;19;20086;-64
2022/04/16 07:42:01;;;;;;;55.92;26.48;;;;;;;15.75;70.32;102627.22;7387846;19;20014;-64
2022/04/16 07:44:27;;;;;;;55.17;26.25;;;;;;;15.92;69.67;102622.16;7389259;19;20029;-65
2022/04/16 07:46:54;;;;;;;57.15;26.05;;;;;;;16.12;69.12;102621.13;7386706;19;20007;-69
2022/04/16 07:49:21;;;;;;;57.60;26.45;;;;;;;16.35;68.18;102618.97;7384867;19;20009;-66
2022/04/16 07:51:48;;;;;;;53.63;26.10;;;;;;;16.65;67.48;102626.69;7385157;19;20015;-65
2022/04/16 07:54:17;;;;;;;54.25;26.15;;;;;;;17.06;66.40;102626.16;7386521;19;20094;-67
2022/04/16 07:56:44;;;;;;;56.75;25.55;;;;;;;17.40;64.81;102626.31;7385938;19;20449;-66
2022/04/16 07:59:12;;;;;;;53.58;27.27;;;;;;;17.78;62.81;102625.13;7386045;19;20089;-63
2022/04/16 08:01:39;;;;;;;49.15;24.15;;;;;;;18.23;61.79;102630.28;7386787;19;20036;-63
2022/04/16 08:04:06;;;;;;;58.65;26.25;;;;;;;18.43;60.37;102630.03;7388663;19;20022;-64
2022/04/16 08:06:33;;;;;;;55.15;26.38;;;;;;;18.33;61.15;102632.81;7385853;19;20094;-64
2022/04/16 08:09:03;;;;;;;59.25;27.17;;;;;;;18.16;61.17;102626.56;7386297;19;20007;-65
2022/04/16 08:11:32;;;;;;;59.45;28.02;;;;;;;18.10;61.36;102627.19;7386622;19;20017;-68
2022/04/16 08:13:59;;;;;;;59.95;27.35;;;;;;;18.03;61.50;102628.00;7385488;19;20026;-63
2022/04/16 08:16:26;;;;;;;59.35;26.70;;;;;;;18.01;61.19;102628.13;7385115;19;20010;-67
2022/04/16 08:18:53;;;;;;;57.17;27.83;;;;;;;17.75;61.96;102627.28;7385155;19;20010;-66
2022/04/16 08:21:20;;;;;;;60.22;27.27;;;;;;;17.46;62.97;102625.72;7386640;19;20010;-63
2022/04/16 08:26:47;;;;;;;59.03;27.75;;;;;;;16.77;65.34;102628.16;7382290;19;20029;-67
2022/04/16 08:29:14;;;;;;;61.80;27.10;;;;;;;16.66;65.87;102631.00;7385340;19;20007;-66
2022/04/16 08:31:41;;;;;;;59.80;27.75;;;;;;;16.50;66.49;102628.97;7384169;19;20139;-67
2022/04/16 08:34:28;;;;;;;64.38;28.50;;;;;;;16.36;66.93;102633.91;7384694;19;20010;-63
2022/04/16 08:36:54;;;;;;;69.60;29.27;;;;;;;16.11;67.61;102630.06;7386875;19;20018;-67
2022/04/16 08:39:22;;;;;;;62.08;27.75;;;;;;;16.05;68.17;102628.84;7384809;19;20381;-63
2022/04/16 08:41:49;;;;;;;68.40;29.08;;;;;;;15.90;69.05;102638.22;7386774;19;20033;-65
2022/04/16 08:44:19;;;;;;;61.35;29.35;;;;;;;15.83;68.69;102639.81;7383129;19;20023;-64
2022/04/16 08:46:46;;;;;;;67.65;28.73;;;;;;;15.79;68.87;102643.72;7384740;19;20011;-66
2022/04/16 08:49:14;;;;;;;66.55;28.90;;;;;;;15.77;69.27;102635.06;7385116;19;20298;-66
2022/04/16 08:51:43;;;;;;;71.20;30.42;;;;;;;15.73;69.69;102636.31;7384674;19;20025;-64
2022/04/16 08:54:10;;;;;;;64.47;29.75;;;;;;;15.70;69.35;102637.44;7384155;19;20022;-66
2022/04/16 08:56:39;;;;;;;64.35;29.27;;;;;;;15.69;69.15;102637.59;7383516;19;20010;-65
2022/04/16 08:59:05;;;;;;;66.47;29.75;;;;;;;15.71;69.08;102638.25;7387662;19;20028;-66
2022/04/16 09:01:34;;;;;;;63.42;29.23;;;;;;;15.65;69.21;102639.66;7384038;19;20081;-64
2022/04/16 09:04:01;;;;;;;66.65;29.58;;;;;;;15.70;69.29;102634.78;7394126;19;20386;-66
2022/04/16 09:06:28;;;;;;;67.63;30.92;;;;;;;15.77;69.94;102630.59;7391103;19;20015;-63
2022/04/16 09:08:55;;;;;;;67.65;30.40;;;;;;;15.86;69.14;102617.41;7392242;19;20026;-65
2022/04/16 09:11:26;;;;;;;67.32;29.85;;;;;;;15.96;68.82;102626.19;7393500;19;20098;-65
2022/04/16 09:13:54;;;;;;;62.55;29.45;;;;;;;16.06;67.65;102614.56;7394179;19;20086;-65
2022/04/16 09:16:21;;;;;;;61.47;28.20;;;;;;;16.16;67.11;102623.34;7390693;19;20007;-64
2022/04/16 09:18:51;;;;;;;56.85;26.98;;;;;;;16.23;66.88;102616.50;7394337;19;20006;-64
2022/04/16 09:21:20;;;;;;;57.50;26.73;;;;;;;16.35;66.96;102617.16;7395699;19;20015;-66
2022/04/16 09:23:50;;;;;;;52.95;25.83;;;;;;;16.43;65.92;102614.59;7393196;19;20031;-66
2022/04/16 09:26:35;;;;;;;49.70;24.83;;;;;;;16.55;65.80;102615.25;7390423;19;20018;-69
2022/04/16 09:29:18;;;;;;;47.08;23.73;;;;;;;16.62;65.40;102614.53;7392495;19;20015;-67
2022/04/16 09:31:47;;;;;;;46.72;22.77;;;;;;;16.72;64.81;102616.28;7391673;19;20040;-64
2022/04/16 09:34:22;;;;;;;46.22;24.10;;;;;;;16.78;65.35;102602.41;7393281;19;20020;-67
2022/04/16 09:36:49;;;;;;;45.58;23.52;;;;;;;16.86;64.61;102613.13;7390650;19;20440;-68
2022/04/16 09:39:17;;;;;;;50.92;25.38;;;;;;;16.92;64.46;102617.84;7392398;19;20026;-64
2022/04/16 09:41:51;;;;;;;45.50;24.55;;;;;;;16.93;64.19;102615.03;7390747;19;20093;-66
2022/04/16 09:44:23;;;;;;;48.95;24.75;;;;;;;16.96;63.66;102614.75;7388297;19;20319;-67
2022/04/16 09:46:52;;;;;;;46.40;22.85;;;;;;;17.03;63.80;102607.81;7395084;19;20475;-63
2022/04/16 09:49:20;;;;;;;42.67;23.05;;;;;;;17.06;64.09;102609.38;7388337;19;20029;-67
2022/04/16 09:51:48;;;;;;;43.30;23.67;;;;;;;17.10;63.19;102614.22;7390062;19;20017;-65
2022/04/16 09:54:16;;;;;;;40.85;21.30;;;;;;;17.21;63.08;102612.34;7389646;19;20385;-63
2022/04/16 09:56:48;;;;;;;41.22;23.15;;;;;;;17.23;63.12;102616.50;7392931;19;20025;-66
2022/04/16 09:59:16;;;;;;;35.30;20.48;;;;;;;17.28;62.39;102624.00;7391682;19;20021;-66
2022/04/16 10:01:48;;;;;;;38.83;21.02;;;;;;;17.21;62.23;102609.66;7393035;19;20031;-65
2022/04/16 10:04:19;;;;;;;;;;;;;;;17.22;62.82;102606.03;7392690;19;20023;-64
2022/04/16 10:06:48;;;;;;;36.65;18.65;;;;;;;17.28;63.47;102605.38;7388862;19;19945;-65
2022/04/16 10:09:22;;;;;;;31.05;17.08;;;;;;;17.37;62.16;102605.31;7391252;19;20464;-66
2022/04/16 10:15:00;;;;;;;32.95;17.77;;;;;;;17.48;60.58;102606.91;7386464;19;20006;-66
2022/04/16 10:17:42;;;;;;;34.55;17.05;;;;;;;17.49;60.88;102609.41;7389140;19;20018;-66
2022/04/16 10:20:21;;;;;;;32.73;17.00;;;;;;;17.54;60.74;102606.28;7389769;19;20590;-66
2022/04/16 10:23:01;;;;;;;32.42;16.98;;;;;;;17.60;59.75;102602.22;7388354;19;20031;-67
2022/04/16 10:25:39;;;;;;;29.55;17.45;;;;;;;17.57;60.47;102605.16;7387651;19;20134;-66
2022/04/16 10:28:12;;;;;;;32.38;17.77;;;;;;;17.56;60.67;102606.13;7388860;19;20488;-64
2022/04/16 10:30:49;;;;;;;33.78;18.58;;;;;;;17.61;60.26;102612.72;7388822;19;20019;-66
2022/04/16 10:33:31;;;;;;;28.48;16.52;;;;;;;17.62;59.82;102606.41;7392305;19;20628;-67
2022/04/16 10:36:03;;;;;;;37.05;20.02;;;;;;;17.68;60.36;102602.25;7389780;19;20007;-67
2022/04/16 10:38:36;;;;;;;35.22;19.10;;;;;;;17.62;60.36;102605.56;7387335;19;20007;-65
2022/04/16 10:41:19;;;;;;;31.38;18.10;;;;;;;17.60;60.38;102594.22;7391768;19;20082;-65
2022/04/16 10:43:59;;;;;;;33.30;18.85;;;;;;;17.61;60.33;102596.75;7386832;19;20014;-64
2022/04/16 10:46:43;;;;;;;31.88;18.27;;;;;;;17.64;60.23;102598.22;7391301;19;20019;-66
2022/04/16 10:49:12;;;;;;;32.08;18.02;;;;;;;17.60;60.23;102597.72;7387247;19;20014;-64
2022/04/16 10:51:39;;;;;;;33.50;18.73;;;;;;;17.60;60.55;102588.91;7390899;19;20021;-65
2022/04/16 10:54:12;;;;;;;32.05;18.20;;;;;;;17.66;59.91;102598.94;7390115;19;20046;-66
2022/04/16 10:56:42;;;;;;;;;;;;;;;17.70;60.28;102586.97;7389511;19;20374;-65
2022/04/16 10:59:10;;;;;;;31.75;17.10;;;;;;;17.72;60.30;102579.69;7386938;19;20218;-66
2022/04/16 11:01:38;;;;;;;29.15;16.55;;;;;;;17.80;59.60;102588.53;7387089;19;20120;-66
2022/04/16 11:04:14;;;;;;;28.85;16.30;;;;;;;17.83;59.71;102582.06;7391269;19;20003;-66
2022/04/16 11:06:48;;;;;;;27.65;16.63;;;;;;;17.82;59.28;102583.06;7387998;19;20018;-66
2022/04/16 11:09:20;;;;;;;33.22;16.42;;;;;;;17.90;58.79;102583.94;7388357;19;20018;-65
2022/04/16 11:11:51;;;;;;;;;;;;;;;17.90;57.85;102589.28;7389103;19;20019;-63
2022/04/16 11:14:18;;;;;;;25.23;14.05;;;;;;;17.93;57.62;102593.44;7384858;19;19925;-65
2022/04/16 11:16:46;;;;;;;24.83;13.18;;;;;;;17.90;56.84;102581.28;7386200;19;20511;-66
2022/04/16 11:19:18;;;;;;;21.35;12.40;;;;;;;17.96;56.79;102585.16;7391071;19;20073;-64
2022/04/16 11:21:45;;;;;;;22.65;12.38;;;;;;;17.98;57.56;102593.78;7388660;19;20025;-67
2022/04/16 11:24:14;;;;;;;25.95;12.93;;;;;;;18.04;56.60;102589.66;7387862;19;20098;-64
2022/04/16 11:35:02;;;;;;;19.73;10.05;;;;;;;18.02;54.95;102581.03;7389769;19;20014;-67
2022/04/16 11:37:32;;;;;;;18.30;9.75;;;;;;;18.02;54.27;102579.19;7390085;19;20034;-64
2022/04/16 11:40:05;;;;;;;17.88;9.90;;;;;;;18.09;53.98;102574.88;7388319;19;20026;-65
2022/04/16 11:42:36;;;;;;;18.30;10.70;;;;;;;18.13;53.82;102583.41;7389621;19;20151;-66
2022/04/16 11:45:06;;;;;;;18.70;9.02;;;;;;;18.13;53.56;102584.25;7385858;19;20010;-66
2022/04/16 11:47:39;;;;;;;17.73;9.80;;;;;;;18.16;53.05;102593.75;7383952;19;20017;-66
2022/04/16 11:50:08;;;;;;;13.57;7.65;;;;;;;18.17;52.17;102587.44;7385182;19;20015;-65